createdAt,value
2017-07-16T00:00:15.962Z,24.09
2017-07-16T00:02:19.586Z,24.11
2017-07-16T00:04:23.155Z,24.12
2017-07-16T00:06:27.160Z,24.13
2017-07-16T00:08:30.627Z,24.12
2017-07-16T00:10:34.455Z,24.09
2017-07-16T00:12:38.580Z,24.08
2017-07-16T00:14:42.161Z,24.09
2017-07-16T00:16:46.068Z,24.07
2017-07-16T00:18:55.399Z,24.04
2017-07-16T00:20:59.407Z,24.05
2017-07-16T00:23:03.105Z,24.06
2017-07-16T00:25:07.006Z,24.08
2017-07-16T00:27:10.805Z,24.10
2017-07-16T00:29:14.302Z,24.09
2017-07-16T00:31:17.901Z,24.11
2017-07-16T00:33:21.595Z,24.09
2017-07-16T00:35:25.703Z,24.09
2017-07-16T00:37:29.532Z,24.06
2017-07-16T00:39:33.281Z,24.07
2017-07-16T00:41:37.212Z,24.07
2017-07-16T00:43:40.273Z,24.06
2017-07-16T00:45:44.186Z,24.05
2017-07-16T00:47:47.590Z,24.05
2017-07-16T00:49:50.987Z,24.05
2017-07-16T00:51:54.681Z,24.05
2017-07-16T00:53:58.154Z,24.04
2017-07-16T00:56:01.569Z,24.07
2017-07-16T00:58:05.368Z,24.07
2017-07-16T01:00:09.381Z,24.05
2017-07-16T01:02:13.097Z,24.04
2017-07-16T01:04:16.579Z,24.05
2017-07-16T01:06:19.976Z,24.03
2017-07-16T01:08:23.914Z,24.03
2017-07-16T01:10:27.952Z,24.04
2017-07-16T01:12:31.469Z,24.03
2017-07-16T01:14:34.960Z,24.00
2017-07-16T01:16:38.796Z,24.02
2017-07-16T01:18:42.460Z,24.00
2017-07-16T01:20:45.851Z,24.01
2017-07-16T01:22:49.555Z,24.02
2017-07-16T01:24:52.847Z,24.03
2017-07-16T01:26:56.642Z,24.00
2017-07-16T01:28:59.713Z,23.99
2017-07-16T01:31:03.636Z,24.01
2017-07-16T01:33:07.539Z,24.01
2017-07-16T01:35:11.543Z,24.02
2017-07-16T01:37:15.444Z,24.02
2017-07-16T01:39:18.937Z,24.02
2017-07-16T01:41:22.434Z,24.01
2017-07-16T01:43:25.722Z,24.01
2017-07-16T01:45:29.626Z,23.98
2017-07-16T01:47:33.454Z,23.97
2017-07-16T01:49:37.128Z,23.99
2017-07-16T01:51:40.932Z,23.99
2017-07-16T01:53:44.835Z,24.00
2017-07-16T01:55:48.635Z,24.00
2017-07-16T01:57:52.645Z,24.00
2017-07-16T01:59:56.318Z,24.00
2017-07-16T02:02:00.455Z,23.98
2017-07-16T02:04:04.258Z,23.99
2017-07-16T02:06:07.434Z,23.99
2017-07-16T02:08:11.034Z,23.96
2017-07-16T02:10:14.525Z,23.98
2017-07-16T02:12:20.682Z,24.00
2017-07-16T02:14:24.155Z,24.02
2017-07-16T02:16:27.674Z,24.03
2017-07-16T02:18:31.781Z,23.98
2017-07-16T02:20:35.172Z,23.97
2017-07-16T02:22:38.870Z,23.98
2017-07-16T02:24:42.569Z,23.98
2017-07-16T02:26:46.472Z,23.96
2017-07-16T02:28:49.863Z,23.95
2017-07-16T02:30:54.178Z,23.94
2017-07-16T02:32:57.784Z,23.95
2017-07-16T02:35:02.395Z,23.95
2017-07-16T02:37:05.794Z,23.97
2017-07-16T02:39:09.693Z,23.97
2017-07-16T02:41:13.185Z,23.94
2017-07-16T02:43:16.857Z,23.95
2017-07-16T02:45:20.482Z,23.96
2017-07-16T02:47:23.978Z,23.96
2017-07-16T02:49:27.986Z,23.95
2017-07-16T02:51:31.269Z,23.94
2017-07-16T02:53:35.173Z,23.94
2017-07-16T02:55:38.641Z,23.97
2017-07-16T02:57:42.621Z,23.97
2017-07-16T02:59:46.167Z,23.97
2017-07-16T03:01:49.563Z,23.96
2017-07-16T03:03:52.847Z,23.96
2017-07-16T03:05:56.522Z,23.94
2017-07-16T03:08:00.963Z,23.94
2017-07-16T03:10:04.461Z,23.92
2017-07-16T03:12:07.644Z,23.92
2017-07-16T03:14:11.034Z,23.93
2017-07-16T03:16:14.944Z,23.92
2017-07-16T03:18:18.411Z,23.93
2017-07-16T03:20:22.236Z,23.92
2017-07-16T03:22:25.730Z,23.93
2017-07-16T03:24:29.426Z,23.92
2017-07-16T03:26:33.230Z,23.91
2017-07-16T03:28:37.031Z,23.92
2017-07-16T03:47:52.081Z,23.94
2017-07-16T23:12:48.784Z,24.44
2017-07-16T23:14:52.381Z,24.44
2017-07-16T23:16:56.593Z,24.43
2017-07-16T23:19:00.388Z,24.42
2017-07-16T23:21:04.509Z,24.43
2017-07-16T23:23:08.616Z,24.43
2017-07-16T23:25:11.900Z,24.44
2017-07-16T23:27:15.599Z,24.45
2017-07-16T23:29:19.195Z,24.44
2017-07-16T23:31:22.794Z,24.44
2017-07-16T23:33:26.263Z,24.44
2017-07-16T23:35:30.395Z,24.44
2017-07-16T23:37:33.683Z,24.45
2017-07-16T23:39:37.690Z,24.44
2017-07-16T23:41:41.081Z,24.44
2017-07-16T23:43:44.142Z,24.44
2017-07-16T23:45:48.087Z,24.45
2017-07-16T23:47:51.154Z,24.47
2017-07-16T23:49:55.161Z,24.46
2017-07-16T23:51:58.662Z,24.46
2017-07-16T23:54:02.149Z,24.44
2017-07-16T23:56:06.156Z,24.44
2017-07-16T23:58:09.444Z,24.41
